sensor_id;sensor_type;location;lat;lon;timestamp;pressure;altitude;pressure_sealevel;temperature;humidity
50550;BME280;36505;52.512;13.460;2023-06-26T00:01:29;101065.84;;;21.04;75.70
50550;BME280;36505;52.512;13.460;2023-06-26T00:03:56;101078.88;;;21.08;75.72
50550;BME280;36505;52.512;13.460;2023-06-26T00:06:22;101073.66;;;21.02;75.37
50550;BME280;36505;52.512;13.460;2023-06-26T00:08:50;101072.34;;;20.99;75.46
50550;BME280;36505;52.512;13.460;2023-06-26T00:11:15;101075.22;;;20.94;75.55
50550;BME280;36505;52.512;13.460;2023-06-26T00:13:41;101073.28;;;20.95;75.71
50550;BME280;36505;52.512;13.460;2023-06-26T00:16:07;101077.78;;;20.90;75.83
50550;BME280;36505;52.512;13.460;2023-06-26T00:18:32;101068.91;;;20.88;76.10
50550;BME280;36505;52.512;13.460;2023-06-26T00:20:57;101069.22;;;20.87;76.82
50550;BME280;36505;52.512;13.460;2023-06-26T00:23:23;101063.13;;;20.85;76.76
50550;BME280;36505;52.512;13.460;2023-06-26T00:25:48;101066.22;;;20.83;76.79
50550;BME280;36505;52.512;13.460;2023-06-26T00:28:13;101058.78;;;20.79;77.13
50550;BME280;36505;52.512;13.460;2023-06-26T00:30:39;101060.22;;;20.76;77.11
50550;BME280;36505;52.512;13.460;2023-06-26T00:33:04;101061.88;;;20.77;77.06
50550;BME280;36505;52.512;13.460;2023-06-26T00:35:29;101069.19;;;20.73;77.22
50550;BME280;36505;52.512;13.460;2023-06-26T00:37:55;101067.31;;;20.69;77.33
50550;BME280;36505;52.512;13.460;2023-06-26T00:40:20;101060.91;;;20.68;77.40
50550;BME280;36505;52.512;13.460;2023-06-26T00:42:46;101055.66;;;20.67;77.84
50550;BME280;36505;52.512;13.460;2023-06-26T00:45:11;101055.13;;;20.65;78.00
50550;BME280;36505;52.512;13.460;2023-06-26T00:47:37;101061.81;;;20.64;78.47
50550;BME280;36505;52.512;13.460;2023-06-26T00:50:04;101058.50;;;20.62;78.17
50550;BME280;36505;52.512;13.460;2023-06-26T00:52:30;101056.06;;;20.60;78.53
50550;BME280;36505;52.512;13.460;2023-06-26T00:54:56;101055.00;;;20.56;78.70
50550;BME280;36505;52.512;13.460;2023-06-26T00:57:21;101061.09;;;20.58;78.90
50550;BME280;36505;52.512;13.460;2023-06-26T00:59:48;101053.88;;;20.57;78.87
50550;BME280;36505;52.512;13.460;2023-06-26T01:02:13;101061.69;;;20.55;78.90
50550;BME280;36505;52.512;13.460;2023-06-26T01:04:48;101047.78;;;20.55;79.73
50550;BME280;36505;52.512;13.460;2023-06-26T01:07:15;101052.22;;;20.56;80.18
50550;BME280;36505;52.512;13.460;2023-06-26T01:09:42;101042.22;;;20.55;80.15
50550;BME280;36505;52.512;13.460;2023-06-26T01:12:08;101029.81;;;20.47;79.67
50550;BME280;36505;52.512;13.460;2023-06-26T01:14:36;101038.94;;;20.53;79.59
50550;BME280;36505;52.512;13.460;2023-06-26T01:17:02;101039.53;;;20.50;79.70
50550;BME280;36505;52.512;13.460;2023-06-26T01:19:30;101041.19;;;20.51;79.80
50550;BME280;36505;52.512;13.460;2023-06-26T01:22:02;101038.41;;;20.51;79.98
50550;BME280;36505;52.512;13.460;2023-06-26T01:24:45;101041.19;;;20.51;79.72
50550;BME280;36505;52.512;13.460;2023-06-26T01:27:13;101036.44;;;20.52;79.94
50550;BME280;36505;52.512;13.460;2023-06-26T01:29:40;101032.00;;;20.50;80.25
50550;BME280;36505;52.512;13.460;2023-06-26T01:32:06;101030.66;;;20.48;80.02
50550;BME280;36505;52.512;13.460;2023-06-26T01:34:32;101031.81;;;20.47;80.66
50550;BME280;36505;52.512;13.460;2023-06-26T01:36:58;101027.41;;;20.41;80.53
50550;BME280;36505;52.512;13.460;2023-06-26T01:39:24;101029.38;;;20.40;80.41
50550;BME280;36505;52.512;13.460;2023-06-26T01:41:49;101026.09;;;20.38;80.59
50550;BME280;36505;52.512;13.460;2023-06-26T01:44:27;101022.47;;;20.38;80.87
50550;BME280;36505;52.512;13.460;2023-06-26T01:57:22;101022.78;;;20.36;81.22
50550;BME280;36505;52.512;13.460;2023-06-26T01:59:48;101009.53;;;20.28;81.21
50550;BME280;36505;52.512;13.460;2023-06-26T02:02:15;101012.31;;;20.28;81.53
50550;BME280;36505;52.512;13.460;2023-06-26T02:04:41;101017.81;;;20.15;82.19
50550;BME280;36505;52.512;13.460;2023-06-26T02:07:06;101009.84;;;20.08;82.65
50550;BME280;36505;52.512;13.460;2023-06-26T02:09:34;101014.13;;;20.00;82.88
50550;BME280;36505;52.512;13.460;2023-06-26T02:12:00;101009.78;;;19.94;83.37
50550;BME280;36505;52.512;13.460;2023-06-26T02:14:25;101001.97;;;19.96;83.34
50550;BME280;36505;52.512;13.460;2023-06-26T02:16:50;101009.09;;;20.02;83.41
50550;BME280;36505;52.512;13.460;2023-06-26T02:19:16;101000.19;;;20.05;83.01
50550;BME280;36505;52.512;13.460;2023-06-26T02:21:48;101007.34;;;20.06;82.78
50550;BME280;36505;52.512;13.460;2023-06-26T02:24:14;101004.06;;;20.04;82.53
50550;BME280;36505;52.512;13.460;2023-06-26T02:26:39;101003.25;;;20.04;82.94
50550;BME280;36505;52.512;13.460;2023-06-26T02:29:05;101003.53;;;20.02;83.08
50550;BME280;36505;52.512;13.460;2023-06-26T02:31:30;100999.94;;;20.02;83.19
50550;BME280;36505;52.512;13.460;2023-06-26T02:33:55;101010.22;;;20.01;83.49
50550;BME280;36505;52.512;13.460;2023-06-26T02:36:21;101005.78;;;20.00;83.17
50550;BME280;36505;52.512;13.460;2023-06-26T02:38:46;101007.53;;;19.96;82.97
50550;BME280;36505;52.512;13.460;2023-06-26T02:41:11;101004.66;;;20.01;83.44
50550;BME280;36505;52.512;13.460;2023-06-26T02:43:37;101005.19;;;20.03;83.34
50550;BME280;36505;52.512;13.460;2023-06-26T02:46:02;101004.97;;;20.00;84.12
50550;BME280;36505;52.512;13.460;2023-06-26T02:48:27;100999.41;;;20.00;83.58
50550;BME280;36505;52.512;13.460;2023-06-26T02:50:53;101013.28;;;20.00;84.08
50550;BME280;36505;52.512;13.460;2023-06-26T02:53:18;101000.84;;;19.97;83.97
50550;BME280;36505;52.512;13.460;2023-06-26T02:55:44;101000.31;;;19.95;84.11
50550;BME280;36505;52.512;13.460;2023-06-26T02:58:09;100991.44;;;19.93;84.06
50550;BME280;36505;52.512;13.460;2023-06-26T03:00:34;100997.31;;;19.92;84.25
50550;BME280;36505;52.512;13.460;2023-06-26T03:03:00;100994.22;;;19.93;84.50
50550;BME280;36505;52.512;13.460;2023-06-26T03:05:25;100993.38;;;19.93;84.47
50550;BME280;36505;52.512;13.460;2023-06-26T03:07:51;100989.81;;;19.92;84.67
50550;BME280;36505;52.512;13.460;2023-06-26T03:10:16;100983.94;;;19.94;84.39
50550;BME280;36505;52.512;13.460;2023-06-26T03:12:41;100980.31;;;19.93;84.69
50550;BME280;36505;52.512;13.460;2023-06-26T03:15:07;100976.41;;;19.94;84.60
50550;BME280;36505;52.512;13.460;2023-06-26T03:17:32;100987.84;;;19.93;84.66
50550;BME280;36505;52.512;13.460;2023-06-26T03:19:58;100979.56;;;19.88;84.50
50550;BME280;36505;52.512;13.460;2023-06-26T03:22:23;100976.22;;;19.91;85.02
50550;BME280;36505;52.512;13.460;2023-06-26T03:24:48;100980.94;;;19.90;84.83
50550;BME280;36505;52.512;13.460;2023-06-26T03:27:14;100978.16;;;19.90;84.76
50550;BME280;36505;52.512;13.460;2023-06-26T03:29:39;100978.47;;;19.89;84.96
50550;BME280;36505;52.512;13.460;2023-06-26T03:32:05;100981.53;;;19.87;85.09
50550;BME280;36505;52.512;13.460;2023-06-26T03:34:31;100980.50;;;19.83;85.12
50550;BME280;36505;52.512;13.460;2023-06-26T03:36:56;100967.50;;;19.79;85.49
50550;BME280;36505;52.512;13.460;2023-06-26T03:39:21;100974.69;;;19.80;85.45
50550;BME280;36505;52.512;13.460;2023-06-26T03:41:47;100966.16;;;19.76;85.95
50550;BME280;36505;52.512;13.460;2023-06-26T03:44:12;100967.56;;;19.73;85.96
50550;BME280;36505;52.512;13.460;2023-06-26T03:46:38;100967.25;;;19.75;85.76
50550;BME280;36505;52.512;13.460;2023-06-26T03:49:03;100961.94;;;19.79;85.92
50550;BME280;36505;52.512;13.460;2023-06-26T03:51:29;100962.69;;;19.84;85.43
50550;BME280;36505;52.512;13.460;2023-06-26T03:53:54;100955.47;;;19.83;85.58
50550;BME280;36505;52.512;13.460;2023-06-26T03:56:19;100962.31;;;19.91;85.57
50550;BME280;36505;52.512;13.460;2023-06-26T03:58:45;100959.75;;;19.94;85.29
50550;BME280;36505;52.512;13.460;2023-06-26T04:01:10;100963.34;;;19.95;84.85
50550;BME280;36505;52.512;13.460;2023-06-26T04:03:35;100963.06;;;19.96;85.01
50550;BME280;36505;52.512;13.460;2023-06-26T04:06:01;100977.63;;;19.88;84.95
50550;BME280;36505;52.512;13.460;2023-06-26T04:08:26;100967.63;;;19.87;84.92
50550;BME280;36505;52.512;13.460;2023-06-26T04:10:52;100966.75;;;19.92;84.66
50550;BME280;36505;52.512;13.460;2023-06-26T04:13:18;100960.81;;;19.98;84.28
50550;BME280;36505;52.512;13.460;2023-06-26T04:15:43;100966.09;;;20.13;84.13
50550;BME280;36505;52.512;13.460;2023-06-26T04:18:08;100967.50;;;20.30;83.79
50550;BME280;36505;52.512;13.460;2023-06-26T04:20:39;100961.72;;;20.45;82.52
50550;BME280;36505;52.512;13.460;2023-06-26T04:23:05;100960.31;;;20.61;82.00
50550;BME280;36505;52.512;13.460;2023-06-26T04:25:30;100959.59;;;20.69;80.75
50550;BME280;36505;52.512;13.460;2023-06-26T04:27:55;100964.56;;;20.72;80.67
50550;BME280;36505;52.512;13.460;2023-06-26T04:30:21;100963.34;;;20.78;80.18
50550;BME280;36505;52.512;13.460;2023-06-26T04:32:46;100951.81;;;20.85;80.04
50550;BME280;36505;52.512;13.460;2023-06-26T04:35:12;100958.72;;;20.87;78.33
50550;BME280;36505;52.512;13.460;2023-06-26T04:37:37;100961.59;;;20.96;78.15
50550;BME280;36505;52.512;13.460;2023-06-26T04:40:04;100957.38;;;20.99;77.81
50550;BME280;36505;52.512;13.460;2023-06-26T04:42:30;100954.47;;;21.04;77.21
50550;BME280;36505;52.512;13.460;2023-06-26T04:44:55;100959.94;;;21.09;77.08
50550;BME280;36505;52.512;13.460;2023-06-26T04:47:21;100953.78;;;21.12;76.94
50550;BME280;36505;52.512;13.460;2023-06-26T04:49:46;100957.38;;;21.12;76.69
50550;BME280;36505;52.512;13.460;2023-06-26T04:52:13;100949.56;;;21.14;76.13
50550;BME280;36505;52.512;13.460;2023-06-26T04:54:38;100945.94;;;21.14;76.05
50550;BME280;36505;52.512;13.460;2023-06-26T04:57:04;100950.38;;;21.15;75.40
50550;BME280;36505;52.512;13.460;2023-06-26T04:59:30;100954.72;;;21.21;75.36
50550;BME280;36505;52.512;13.460;2023-06-26T05:01:56;100950.47;;;21.23;75.54
50550;BME280;36505;52.512;13.460;2023-06-26T05:04:21;100948.81;;;21.22;75.35
50550;BME280;36505;52.512;13.460;2023-06-26T05:06:47;100938.03;;;21.21;75.29
50550;BME280;36505;52.512;13.460;2023-06-26T05:09:13;100954.59;;;21.40;74.77
50550;BME280;36505;52.512;13.460;2023-06-26T05:11:38;100951.50;;;21.55;73.65
50550;BME280;36505;52.512;13.460;2023-06-26T05:14:04;100949.59;;;21.64;72.93
50550;BME280;36505;52.512;13.460;2023-06-26T05:16:32;100953.16;;;21.78;71.71
50550;BME280;36505;52.512;13.460;2023-06-26T05:18:58;100944.38;;;21.85;71.25
50550;BME280;36505;52.512;13.460;2023-06-26T05:21:23;100954.25;;;22.04;71.10
50550;BME280;36505;52.512;13.460;2023-06-26T05:23:50;100948.56;;;22.10;70.41
50550;BME280;36505;52.512;13.460;2023-06-26T05:26:17;100934.47;;;22.15;70.06
50550;BME280;36505;52.512;13.460;2023-06-26T05:28:42;100937.50;;;22.27;69.96
50550;BME280;36505;52.512;13.460;2023-06-26T05:31:13;100939.09;;;22.41;69.43
50550;BME280;36505;52.512;13.460;2023-06-26T05:33:42;100937.81;;;22.48;69.23
50550;BME280;36505;52.512;13.460;2023-06-26T05:36:09;100929.28;;;22.53;69.30
50550;BME280;36505;52.512;13.460;2023-06-26T05:38:34;100935.25;;;22.60;69.30
50550;BME280;36505;52.512;13.460;2023-06-26T05:41:00;100928.38;;;22.66;68.31
50550;BME280;36505;52.512;13.460;2023-06-26T05:43:25;100924.97;;;22.69;67.67
50550;BME280;36505;52.512;13.460;2023-06-26T05:45:51;100924.97;;;22.69;67.68
50550;BME280;36505;52.512;13.460;2023-06-26T05:48:16;100913.47;;;22.70;67.55
50550;BME280;36505;52.512;13.460;2023-06-26T05:50:42;100912.38;;;22.80;66.85
50550;BME280;36505;52.512;13.460;2023-06-26T05:53:09;100921.63;;;22.89;66.05
50550;BME280;36505;52.512;13.460;2023-06-26T05:55:34;100910.53;;;23.06;65.96
50550;BME280;36505;52.512;13.460;2023-06-26T05:58:02;100913.72;;;23.31;64.66
50550;BME280;36505;52.512;13.460;2023-06-26T06:00:28;100909.84;;;23.57;64.22
50550;BME280;36505;52.512;13.460;2023-06-26T06:02:54;100914.28;;;23.93;63.22
50550;BME280;36505;52.512;13.460;2023-06-26T06:05:20;100913.63;;;24.22;61.85
50550;BME280;36505;52.512;13.460;2023-06-26T06:07:47;100904.84;;;24.49;60.90
50550;BME280;36505;52.512;13.460;2023-06-26T06:10:12;100905.41;;;24.72;60.24
50550;BME280;36505;52.512;13.460;2023-06-26T06:12:37;100899.06;;;25.01;59.58
50550;BME280;36505;52.512;13.460;2023-06-26T06:15:03;100902.41;;;25.24;58.47
50550;BME280;36505;52.512;13.460;2023-06-26T06:17:28;100902.88;;;25.46;58.20
50550;BME280;36505;52.512;13.460;2023-06-26T06:19:53;100896.91;;;25.77;57.14
50550;BME280;36505;52.512;13.460;2023-06-26T06:22:19;100890.84;;;26.08;55.53
50550;BME280;36505;52.512;13.460;2023-06-26T06:24:44;100894.47;;;26.42;53.94
50550;BME280;36505;52.512;13.460;2023-06-26T06:27:10;100894.66;;;26.69;53.64
50550;BME280;36505;52.512;13.460;2023-06-26T06:29:35;100891.56;;;26.95;53.20
50550;BME280;36505;52.512;13.460;2023-06-26T06:32:01;100896.81;;;27.21;52.21
50550;BME280;36505;52.512;13.460;2023-06-26T06:34:26;100887.06;;;27.43;51.22
50550;BME280;36505;52.512;13.460;2023-06-26T06:36:52;100891.94;;;27.70;49.98
50550;BME280;36505;52.512;13.460;2023-06-26T06:39:17;100888.13;;;27.90;49.17
50550;BME280;36505;52.512;13.460;2023-06-26T06:41:42;100885.22;;;28.15;49.09
50550;BME280;36505;52.512;13.460;2023-06-26T06:44:08;100889.09;;;28.38;47.85
50550;BME280;36505;52.512;13.460;2023-06-26T06:46:33;100877.94;;;28.57;47.14
50550;BME280;36505;52.512;13.460;2023-06-26T06:48:58;100885.75;;;28.80;45.56
50550;BME280;36505;52.512;13.460;2023-06-26T06:51:25;100883.31;;;28.94;45.69
50550;BME280;36505;52.512;13.460;2023-06-26T06:53:50;100883.09;;;29.18;45.21
50550;BME280;36505;52.512;13.460;2023-06-26T06:56:16;100884.88;;;29.42;44.13
50550;BME280;36505;52.512;13.460;2023-06-26T06:58:41;100879.66;;;29.60;43.52
50550;BME280;36505;52.512;13.460;2023-06-26T07:01:12;100882.41;;;29.75;43.33
50550;BME280;36505;52.512;13.460;2023-06-26T07:03:38;100870.16;;;29.87;43.15
50550;BME280;36505;52.512;13.460;2023-06-26T07:06:04;100863.75;;;29.90;43.05
50550;BME280;36505;52.512;13.460;2023-06-26T07:08:29;100873.59;;;30.15;42.24
50550;BME280;36505;52.512;13.460;2023-06-26T07:10:55;100876.69;;;30.30;41.95
50550;BME280;36505;52.512;13.460;2023-06-26T07:13:22;100874.88;;;30.41;41.02
50550;BME280;36505;52.512;13.460;2023-06-26T07:15:47;100865.91;;;30.58;40.80
50550;BME280;36505;52.512;13.460;2023-06-26T07:18:13;100865.31;;;30.68;40.32
50550;BME280;36505;52.512;13.460;2023-06-26T07:20:39;100864.59;;;30.75;40.36
50550;BME280;36505;52.512;13.460;2023-06-26T07:23:04;100866.03;;;30.88;39.60
50550;BME280;36505;52.512;13.460;2023-06-26T07:25:29;100866.25;;;31.02;39.47
50550;BME280;36505;52.512;13.460;2023-06-26T07:27:55;100863.81;;;31.00;39.42
50550;BME280;36505;52.512;13.460;2023-06-26T07:30:20;100866.34;;;31.32;39.53
50550;BME280;36505;52.512;13.460;2023-06-26T07:32:45;100859.03;;;31.57;39.09
50550;BME280;36505;52.512;13.460;2023-06-26T07:35:11;100861.84;;;31.87;37.37
50550;BME280;36505;52.512;13.460;2023-06-26T07:37:36;100850.88;;;32.15;37.29
50550;BME280;36505;52.512;13.460;2023-06-26T07:40:02;100854.06;;;32.47;36.70
50550;BME280;36505;52.512;13.460;2023-06-26T07:42:28;100852.72;;;32.78;36.10
50550;BME280;36505;52.512;13.460;2023-06-26T07:44:53;100848.47;;;33.02;35.40
50550;BME280;36505;52.512;13.460;2023-06-26T07:47:18;100849.03;;;33.25;34.57
50550;BME280;36505;52.512;13.460;2023-06-26T07:49:44;100845.50;;;33.43;34.77
50550;BME280;36505;52.512;13.460;2023-06-26T07:52:09;100843.88;;;33.42;34.32
50550;BME280;36505;52.512;13.460;2023-06-26T07:54:40;100838.66;;;33.54;34.11
50550;BME280;36505;52.512;13.460;2023-06-26T07:57:05;100833.13;;;33.76;33.60
50550;BME280;36505;52.512;13.460;2023-06-26T07:59:34;100833.63;;;34.09;32.66
50550;BME280;36505;52.512;13.460;2023-06-26T08:02:00;100832.47;;;34.28;32.67
50550;BME280;36505;52.512;13.460;2023-06-26T08:04:27;100830.88;;;34.48;31.66
50550;BME280;36505;52.512;13.460;2023-06-26T08:06:55;100834.50;;;34.67;31.57
50550;BME280;36505;52.512;13.460;2023-06-26T08:09:23;100830.47;;;34.64;32.03
50550;BME280;36505;52.512;13.460;2023-06-26T08:11:49;100834.16;;;34.79;31.41
50550;BME280;36505;52.512;13.460;2023-06-26T08:14:16;100825.97;;;35.09;31.13
50550;BME280;36505;52.512;13.460;2023-06-26T08:16:42;100830.03;;;35.33;30.29
50550;BME280;36505;52.512;13.460;2023-06-26T08:19:09;100825.16;;;35.23;30.44
50550;BME280;36505;52.512;13.460;2023-06-26T08:21:35;100824.69;;;35.42;30.47
50550;BME280;36505;52.512;13.460;2023-06-26T08:24:01;100828.63;;;35.87;28.04
50550;BME280;36505;52.512;13.460;2023-06-26T08:26:26;100820.38;;;36.03;27.83
50550;BME280;36505;52.512;13.460;2023-06-26T08:28:51;100817.13;;;36.05;26.60
50550;BME280;36505;52.512;13.460;2023-06-26T08:31:17;100824.88;;;35.97;27.01
50550;BME280;36505;52.512;13.460;2023-06-26T08:33:43;100820.81;;;36.02;26.59
50550;BME280;36505;52.512;13.460;2023-06-26T08:36:08;100814.38;;;35.84;27.11
50550;BME280;36505;52.512;13.460;2023-06-26T08:38:33;100814.84;;;35.75;27.85
50550;BME280;36505;52.512;13.460;2023-06-26T08:40:59;100805.53;;;35.57;27.79
50550;BME280;36505;52.512;13.460;2023-06-26T08:43:25;100807.56;;;35.56;27.49
50550;BME280;36505;52.512;13.460;2023-06-26T08:45:52;100809.53;;;35.81;27.14
50550;BME280;36505;52.512;13.460;2023-06-26T08:48:18;100799.25;;;35.97;26.71
50550;BME280;36505;52.512;13.460;2023-06-26T08:50:48;100803.72;;;36.02;25.79
50550;BME280;36505;52.512;13.460;2023-06-26T08:53:57;100804.09;;;36.04;25.77
50550;BME280;36505;52.512;13.460;2023-06-26T08:56:24;100793.66;;;35.69;25.93
50550;BME280;36505;52.512;13.460;2023-06-26T08:58:50;100794.53;;;35.59;26.70
50550;BME280;36505;52.512;13.460;2023-06-26T09:01:16;100800.66;;;35.57;26.45
50550;BME280;36505;52.512;13.460;2023-06-26T09:03:41;100799.03;;;35.53;25.24
50550;BME280;36505;52.512;13.460;2023-06-26T09:06:07;100793.84;;;35.27;25.96
50550;BME280;36505;52.512;13.460;2023-06-26T09:08:33;100784.91;;;35.10;26.74
50550;BME280;36505;52.512;13.460;2023-06-26T09:10:59;100783.75;;;34.94;26.49
50550;BME280;36505;52.512;13.460;2023-06-26T09:13:25;100780.47;;;34.95;27.14
50550;BME280;36505;52.512;13.460;2023-06-26T09:15:53;100778.47;;;34.81;27.47
50550;BME280;36505;52.512;13.460;2023-06-26T09:18:20;100773.63;;;34.78;26.84
50550;BME280;36505;52.512;13.460;2023-06-26T09:20:46;100773.19;;;34.62;27.28
50550;BME280;36505;52.512;13.460;2023-06-26T09:23:11;100767.50;;;34.62;27.64
50550;BME280;36505;52.512;13.460;2023-06-26T09:25:38;100769.53;;;34.58;27.46
50550;BME280;36505;52.512;13.460;2023-06-26T09:28:04;100771.97;;;34.56;28.15
50550;BME280;36505;52.512;13.460;2023-06-26T09:30:32;100766.28;;;34.53;27.55
50550;BME280;36505;52.512;13.460;2023-06-26T09:32:57;100767.09;;;34.25;27.92
50550;BME280;36505;52.512;13.460;2023-06-26T09:35:23;100759.31;;;33.93;28.74
50550;BME280;36505;52.512;13.460;2023-06-26T09:37:50;100758.06;;;33.87;29.31
50550;BME280;36505;52.512;13.460;2023-06-26T09:40:15;100757.63;;;33.78;29.04
50550;BME280;36505;52.512;13.460;2023-06-26T09:42:41;100756.81;;;33.70;29.14
50550;BME280;36505;52.512;13.460;2023-06-26T09:45:07;100751.88;;;33.60;28.41
50550;BME280;36505;52.512;13.460;2023-06-26T09:47:34;100742.09;;;33.37;28.17
50550;BME280;36505;52.512;13.460;2023-06-26T09:50:02;100745.72;;;33.33;28.76
50550;BME280;36505;52.512;13.460;2023-06-26T09:52:27;100748.09;;;33.24;29.72
50550;BME280;36505;52.512;13.460;2023-06-26T09:55:08;100742.69;;;33.02;30.72
50550;BME280;36505;52.512;13.460;2023-06-26T09:57:34;100740.59;;;32.91;30.58
50550;BME280;36505;52.512;13.460;2023-06-26T10:00:00;100728.38;;;32.80;31.31
50550;BME280;36505;52.512;13.460;2023-06-26T10:02:26;100730.75;;;32.71;30.72
50550;BME280;36505;52.512;13.460;2023-06-26T10:04:51;100732.56;;;32.46;30.92
50550;BME280;36505;52.512;13.460;2023-06-26T10:07:17;100734.84;;;32.30;30.91
50550;BME280;36505;52.512;13.460;2023-06-26T10:09:45;100726.28;;;32.23;31.71
50550;BME280;36505;52.512;13.460;2023-06-26T10:12:18;100723.34;;;32.12;31.28
50550;BME280;36505;52.512;13.460;2023-06-26T10:14:45;100720.88;;;32.07;31.55
50550;BME280;36505;52.512;13.460;2023-06-26T10:17:11;100722.09;;;32.09;32.10
50550;BME280;36505;52.512;13.460;2023-06-26T10:19:42;100709.94;;;32.09;32.92
50550;BME280;36505;52.512;13.460;2023-06-26T10:22:09;100713.22;;;32.11;32.86
50550;BME280;36505;52.512;13.460;2023-06-26T10:24:36;100718.06;;;32.10;32.46
50550;BME280;36505;52.512;13.460;2023-06-26T10:27:08;100698.19;;;32.03;32.18
50550;BME280;36505;52.512;13.460;2023-06-26T10:29:37;100697.81;;;32.08;32.41
50550;BME280;36505;52.512;13.460;2023-06-26T10:32:04;100704.59;;;31.97;33.37
50550;BME280;36505;52.512;13.460;2023-06-26T10:34:31;100693.25;;;31.93;32.54
50550;BME280;36505;52.512;13.460;2023-06-26T10:37:01;100686.63;;;31.78;32.45
50550;BME280;36505;52.512;13.460;2023-06-26T10:39:27;100686.00;;;31.59;32.33
50550;BME280;36505;52.512;13.460;2023-06-26T10:41:54;100681.81;;;31.49;33.35
50550;BME280;36505;52.512;13.460;2023-06-26T10:44:20;100682.25;;;31.51;32.92
50550;BME280;36505;52.512;13.460;2023-06-26T10:46:50;100675.34;;;31.49;33.57
50550;BME280;36505;52.512;13.460;2023-06-26T10:49:21;100675.28;;;31.42;33.94
50550;BME280;36505;52.512;13.460;2023-06-26T10:51:50;100676.09;;;31.42;34.21
50550;BME280;36505;52.512;13.460;2023-06-26T10:54:19;100674.44;;;31.37;33.50
50550;BME280;36505;52.512;13.460;2023-06-26T10:56:46;100665.03;;;31.30;33.71
50550;BME280;36505;52.512;13.460;2023-06-26T10:59:19;100661.03;;;31.31;33.84
50550;BME280;36505;52.512;13.460;2023-06-26T11:01:59;100664.66;;;31.31;33.05
50550;BME280;36505;52.512;13.460;2023-06-26T11:04:49;100665.13;;;31.37;33.88
50550;BME280;36505;52.512;13.460;2023-06-26T11:07:23;100663.13;;;31.41;33.98
50550;BME280;36505;52.512;13.460;2023-06-26T11:10:07;100659.56;;;31.44;34.23
50550;BME280;36505;52.512;13.460;2023-06-26T11:12:40;100660.78;;;31.47;33.77
50550;BME280;36505;52.512;13.460;2023-06-26T11:15:26;100651.06;;;31.44;33.48
50550;BME280;36505;52.512;13.460;2023-06-26T11:17:51;100650.97;;;31.37;34.06
50550;BME280;36505;52.512;13.460;2023-06-26T11:20:17;100644.44;;;31.33;34.18
50550;BME280;36505;52.512;13.460;2023-06-26T11:22:43;100640.34;;;31.27;33.81
50550;BME280;36505;52.512;13.460;2023-06-26T11:25:10;100644.78;;;31.24;34.83
50550;BME280;36505;52.512;13.460;2023-06-26T11:30:08;100633.88;;;31.26;34.27
50550;BME280;36505;52.512;13.460;2023-06-26T11:32:35;100632.66;;;31.24;33.35
50550;BME280;36505;52.512;13.460;2023-06-26T11:35:01;100638.22;;;31.17;33.09
50550;BME280;36505;52.512;13.460;2023-06-26T11:37:26;100627.25;;;31.12;35.17
50550;BME280;36505;52.512;13.460;2023-06-26T11:39:52;100625.66;;;31.14;35.81
50550;BME280;36505;52.512;13.460;2023-06-26T11:42:18;100616.81;;;31.19;34.65
50550;BME280;36505;52.512;13.460;2023-06-26T11:44:44;100617.63;;;31.20;33.83
50550;BME280;36505;52.512;13.460;2023-06-26T11:47:20;100613.59;;;31.17;34.74
50550;BME280;36505;52.512;13.460;2023-06-26T11:49:49;100607.13;;;31.17;34.27
50550;BME280;36505;52.512;13.460;2023-06-26T11:52:15;100603.84;;;31.15;34.28
50550;BME280;36505;52.512;13.460;2023-06-26T11:54:41;100594.94;;;31.13;34.97
50550;BME280;36505;52.512;13.460;2023-06-26T11:57:07;100594.97;;;31.16;35.11
50550;BME280;36505;52.512;13.460;2023-06-26T11:59:37;100587.25;;;31.13;34.19
50550;BME280;36505;52.512;13.460;2023-06-26T12:02:10;100581.13;;;31.08;34.82
50550;BME280;36505;52.512;13.460;2023-06-26T12:04:37;100573.38;;;31.01;35.16
50550;BME280;36505;52.512;13.460;2023-06-26T12:07:05;100569.72;;;31.00;35.11
50550;BME280;36505;52.512;13.460;2023-06-26T12:09:33;100571.41;;;31.05;34.98
50550;BME280;36505;52.512;13.460;2023-06-26T12:11:59;100566.88;;;31.00;32.63
50550;BME280;36505;52.512;13.460;2023-06-26T12:14:26;100565.63;;;30.94;33.55
50550;BME280;36505;52.512;13.460;2023-06-26T12:16:54;100548.53;;;30.84;34.30
50550;BME280;36505;52.512;13.460;2023-06-26T12:19:25;100553.28;;;30.76;34.79
50550;BME280;36505;52.512;13.460;2023-06-26T12:21:52;100554.84;;;30.70;34.89
50550;BME280;36505;52.512;13.460;2023-06-26T12:24:21;100544.66;;;30.66;34.74
50550;BME280;36505;52.512;13.460;2023-06-26T12:26:54;100545.03;;;30.64;33.59
50550;BME280;36505;52.512;13.460;2023-06-26T12:29:22;100535.34;;;30.61;34.25
50550;BME280;36505;52.512;13.460;2023-06-26T12:31:53;100533.69;;;30.57;33.89
50550;BME280;36505;52.512;13.460;2023-06-26T12:34:21;100539.75;;;30.59;34.57
50550;BME280;36505;52.512;13.460;2023-06-26T12:36:48;100538.63;;;30.67;34.99
50550;BME280;36505;52.512;13.460;2023-06-26T12:39:16;100532.16;;;30.67;34.11
50550;BME280;36505;52.512;13.460;2023-06-26T12:44:37;100531.44;;;30.73;34.49
50550;BME280;36505;52.512;13.460;2023-06-26T12:47:02;100523.41;;;30.75;35.23
50550;BME280;36505;52.512;13.460;2023-06-26T12:49:33;100513.66;;;30.73;34.59
50550;BME280;36505;52.512;13.460;2023-06-26T12:51:59;100521.75;;;30.74;34.25
50550;BME280;36505;52.512;13.460;2023-06-26T12:54:25;100511.28;;;30.75;34.56